sensor_id;sensor_type;location;lat;lon;timestamp;P1;durP1;ratioP1;P2;durP2;ratioP2
84303;SDS011;74469;52.520;16.998;2024-02-28T00:01:50;31.70;;;15.50;;
84303;SDS011;74469;52.520;16.998;2024-02-28T00:06:53;40.00;;;18.20;;
84303;SDS011;74469;52.520;16.998;2024-02-28T00:11:56;45.80;;;18.30;;
84303;SDS011;74469;52.520;16.998;2024-02-28T00:16:59;41.70;;;16.70;;
84303;SDS011;74469;52.520;16.998;2024-02-28T00:22:02;34.20;;;15.10;;
84303;SDS011;74469;52.520;16.998;2024-02-28T00:27:04;31.70;;;13.30;;
84303;SDS011;74469;52.520;16.998;2024-02-28T00:32:07;28.80;;;14.20;;
84303;SDS011;74469;52.520;16.998;2024-02-28T00:37:10;32.10;;;13.70;;
84303;SDS011;74469;52.520;16.998;2024-02-28T00:42:12;38.50;;;16.30;;
84303;SDS011;74469;52.520;16.998;2024-02-28T00:47:15;35.30;;;14.90;;
84303;SDS011;74469;52.520;16.998;2024-02-28T00:52:18;38.00;;;15.00;;
84303;SDS011;74469;52.520;16.998;2024-02-28T00:57:20;37.00;;;15.90;;
84303;SDS011;74469;52.520;16.998;2024-02-28T01:02:23;25.60;;;12.00;;
84303;SDS011;74469;52.520;16.998;2024-02-28T01:07:26;27.70;;;12.50;;
84303;SDS011;74469;52.520;16.998;2024-02-28T01:12:28;33.00;;;14.60;;
84303;SDS011;74469;52.520;16.998;2024-02-28T01:17:31;35.10;;;14.80;;
84303;SDS011;74469;52.520;16.998;2024-02-28T01:28:23;25.50;;;10.70;;
84303;SDS011;74469;52.520;16.998;2024-02-28T01:33:26;35.30;;;12.30;;
84303;SDS011;74469;52.520;16.998;2024-02-28T01:38:28;30.50;;;13.50;;
84303;SDS011;74469;52.520;16.998;2024-02-28T01:43:31;25.70;;;11.00;;
84303;SDS011;74469;52.520;16.998;2024-02-28T01:48:34;29.80;;;10.40;;
84303;SDS011;74469;52.520;16.998;2024-02-28T01:53:37;28.70;;;13.50;;
84303;SDS011;74469;52.520;16.998;2024-02-28T01:58:39;27.00;;;13.00;;
84303;SDS011;74469;52.520;16.998;2024-02-28T02:03:43;25.20;;;11.20;;
84303;SDS011;74469;52.520;16.998;2024-02-28T02:08:46;25.70;;;10.70;;
84303;SDS011;74469;52.520;16.998;2024-02-28T02:13:50;19.50;;;10.00;;
84303;SDS011;74469;52.520;16.998;2024-02-28T02:18:54;29.10;;;12.20;;
84303;SDS011;74469;52.520;16.998;2024-02-28T02:23:56;30.60;;;14.00;;
84303;SDS011;74469;52.520;16.998;2024-02-28T02:28:59;30.70;;;12.20;;
84303;SDS011;74469;52.520;16.998;2024-02-28T02:34:02;33.00;;;13.70;;
84303;SDS011;74469;52.520;16.998;2024-02-28T02:39:04;25.70;;;11.60;;
84303;SDS011;74469;52.520;16.998;2024-02-28T02:44:07;29.40;;;12.10;;
84303;SDS011;74469;52.520;16.998;2024-02-28T02:49:11;31.40;;;10.40;;
84303;SDS011;74469;52.520;16.998;2024-02-28T02:54:13;38.10;;;13.40;;
84303;SDS011;74469;52.520;16.998;2024-02-28T02:59:16;28.90;;;13.70;;
84303;SDS011;74469;52.520;16.998;2024-02-28T03:04:19;31.20;;;12.10;;
84303;SDS011;74469;52.520;16.998;2024-02-28T03:09:21;24.40;;;10.50;;
84303;SDS011;74469;52.520;16.998;2024-02-28T03:14:24;22.00;;;8.40;;
84303;SDS011;74469;52.520;16.998;2024-02-28T03:19:29;22.40;;;9.10;;
84303;SDS011;74469;52.520;16.998;2024-02-28T03:24:32;30.20;;;12.10;;
84303;SDS011;74469;52.520;16.998;2024-02-28T04:34:23;28.70;;;11.70;;
84303;SDS011;74469;52.520;16.998;2024-02-28T04:39:26;28.10;;;13.00;;
84303;SDS011;74469;52.520;16.998;2024-02-28T04:44:28;23.90;;;11.60;;
84303;SDS011;74469;52.520;16.998;2024-02-28T04:49:31;21.40;;;10.70;;
84303;SDS011;74469;52.520;16.998;2024-02-28T04:54:33;19.10;;;8.40;;
84303;SDS011;74469;52.520;16.998;2024-02-28T04:59:36;13.50;;;6.90;;
84303;SDS011;74469;52.520;16.998;2024-02-28T05:04:39;23.50;;;10.10;;
84303;SDS011;74469;52.520;16.998;2024-02-28T05:09:42;20.60;;;10.50;;
84303;SDS011;74469;52.520;16.998;2024-02-28T05:14:44;18.90;;;8.80;;
84303;SDS011;74469;52.520;16.998;2024-02-28T05:19:47;28.90;;;10.80;;
84303;SDS011;74469;52.520;16.998;2024-02-28T05:24:50;15.40;;;9.90;;
84303;SDS011;74469;52.520;16.998;2024-02-28T05:29:53;16.60;;;7.70;;
84303;SDS011;74469;52.520;16.998;2024-02-28T05:34:55;20.10;;;8.10;;
84303;SDS011;74469;52.520;16.998;2024-02-28T05:39:58;27.10;;;10.90;;
84303;SDS011;74469;52.520;16.998;2024-02-28T05:45:01;24.70;;;9.40;;
84303;SDS011;74469;52.520;16.998;2024-02-28T05:50:04;28.00;;;11.60;;
84303;SDS011;74469;52.520;16.998;2024-02-28T05:55:07;16.50;;;8.00;;
84303;SDS011;74469;52.520;16.998;2024-02-28T06:00:10;22.10;;;9.60;;
84303;SDS011;74469;52.520;16.998;2024-02-28T06:05:13;22.70;;;8.80;;
84303;SDS011;74469;52.520;16.998;2024-02-28T06:10:16;23.50;;;10.80;;
84303;SDS011;74469;52.520;16.998;2024-02-28T06:15:19;30.10;;;12.30;;
84303;SDS011;74469;52.520;16.998;2024-02-28T06:20:22;32.60;;;11.90;;
84303;SDS011;74469;52.520;16.998;2024-02-28T06:25:24;25.10;;;10.30;;
84303;SDS011;74469;52.520;16.998;2024-02-28T06:35:57;18.10;;;8.70;;
84303;SDS011;74469;52.520;16.998;2024-02-28T06:41:03;17.90;;;8.00;;
84303;SDS011;74469;52.520;16.998;2024-02-28T06:46:06;25.10;;;10.90;;
84303;SDS011;74469;52.520;16.998;2024-02-28T06:51:09;24.10;;;11.30;;
84303;SDS011;74469;52.520;16.998;2024-02-28T06:56:12;24.70;;;11.40;;
84303;SDS011;74469;52.520;16.998;2024-02-28T07:01:14;19.30;;;10.10;;
84303;SDS011;74469;52.520;16.998;2024-02-28T07:06:17;15.60;;;8.60;;
84303;SDS011;74469;52.520;16.998;2024-02-28T07:11:20;15.60;;;7.20;;
84303;SDS011;74469;52.520;16.998;2024-02-28T07:16:24;18.40;;;9.40;;
84303;SDS011;74469;52.520;16.998;2024-02-28T07:21:26;21.80;;;9.10;;
84303;SDS011;74469;52.520;16.998;2024-02-28T07:26:29;22.70;;;9.60;;
84303;SDS011;74469;52.520;16.998;2024-02-28T07:31:32;16.90;;;7.70;;
84303;SDS011;74469;52.520;16.998;2024-02-28T07:36:35;24.60;;;9.40;;
84303;SDS011;74469;52.520;16.998;2024-02-28T07:41:41;18.80;;;9.70;;
84303;SDS011;74469;52.520;16.998;2024-02-28T07:46:44;21.00;;;7.50;;
84303;SDS011;74469;52.520;16.998;2024-02-28T07:51:47;20.90;;;9.10;;
84303;SDS011;74469;52.520;16.998;2024-02-28T07:56:50;28.50;;;10.60;;
84303;SDS011;74469;52.520;16.998;2024-02-28T08:01:53;20.70;;;10.70;;
84303;SDS011;74469;52.520;16.998;2024-02-28T08:06:55;26.90;;;11.00;;
84303;SDS011;74469;52.520;16.998;2024-02-28T08:11:58;30.40;;;12.10;;
84303;SDS011;74469;52.520;16.998;2024-02-28T08:17:01;23.90;;;11.00;;
84303;SDS011;74469;52.520;16.998;2024-02-28T08:22:04;20.00;;;9.10;;
84303;SDS011;74469;52.520;16.998;2024-02-28T08:27:06;36.00;;;14.00;;
84303;SDS011;74469;52.520;16.998;2024-02-28T08:37:50;22.30;;;11.30;;
84303;SDS011;74469;52.520;16.998;2024-02-28T08:42:53;26.20;;;10.80;;
84303;SDS011;74469;52.520;16.998;2024-02-28T08:47:56;26.90;;;10.00;;
84303;SDS011;74469;52.520;16.998;2024-02-28T08:53:03;23.10;;;9.60;;
84303;SDS011;74469;52.520;16.998;2024-02-28T08:58:06;22.40;;;9.80;;
84303;SDS011;74469;52.520;16.998;2024-02-28T09:03:09;20.40;;;11.00;;
84303;SDS011;74469;52.520;16.998;2024-02-28T09:08:12;14.90;;;7.80;;
84303;SDS011;74469;52.520;16.998;2024-02-28T09:13:14;13.20;;;6.90;;
84303;SDS011;74469;52.520;16.998;2024-02-28T09:18:17;12.40;;;7.40;;
84303;SDS011;74469;52.520;16.998;2024-02-28T09:23:20;12.70;;;7.30;;
84303;SDS011;74469;52.520;16.998;2024-02-28T09:28:23;11.30;;;6.00;;
84303;SDS011;74469;52.520;16.998;2024-02-28T09:33:26;15.70;;;9.30;;
84303;SDS011;74469;52.520;16.998;2024-02-28T09:38:29;11.20;;;6.30;;
84303;SDS011;74469;52.520;16.998;2024-02-28T09:43:32;8.80;;;5.60;;
84303;SDS011;74469;52.520;16.998;2024-02-28T09:48:42;10.60;;;5.50;;
84303;SDS011;74469;52.520;16.998;2024-02-28T09:53:45;8.20;;;5.30;;
84303;SDS011;74469;52.520;16.998;2024-02-28T09:58:47;10.50;;;4.40;;
84303;SDS011;74469;52.520;16.998;2024-02-28T10:03:50;7.50;;;4.30;;
84303;SDS011;74469;52.520;16.998;2024-02-28T10:08:57;5.60;;;4.10;;
84303;SDS011;74469;52.520;16.998;2024-02-28T10:13:59;8.30;;;5.30;;
84303;SDS011;74469;52.520;16.998;2024-02-28T10:19:04;9.20;;;5.60;;
84303;SDS011;74469;52.520;16.998;2024-02-28T10:24:07;15.60;;;8.00;;
84303;SDS011;74469;52.520;16.998;2024-02-28T10:29:10;12.00;;;5.70;;
84303;SDS011;74469;52.520;16.998;2024-02-28T10:39:54;12.50;;;6.00;;
84303;SDS011;74469;52.520;16.998;2024-02-28T10:44:58;7.40;;;5.10;;
84303;SDS011;74469;52.520;16.998;2024-02-28T10:50:01;8.00;;;5.00;;
84303;SDS011;74469;52.520;16.998;2024-02-28T10:55:05;8.20;;;4.70;;
84303;SDS011;74469;52.520;16.998;2024-02-28T11:00:11;9.70;;;4.90;;
84303;SDS011;74469;52.520;16.998;2024-02-28T11:05:15;11.20;;;5.30;;
84303;SDS011;74469;52.520;16.998;2024-02-28T11:10:17;9.30;;;4.60;;
84303;SDS011;74469;52.520;16.998;2024-02-28T11:15:20;12.70;;;6.90;;
84303;SDS011;74469;52.520;16.998;2024-02-28T11:20:33;8.20;;;3.80;;
84303;SDS011;74469;52.520;16.998;2024-02-28T11:25:36;9.50;;;6.50;;
84303;SDS011;74469;52.520;16.998;2024-02-28T11:30:40;11.10;;;6.20;;
84303;SDS011;74469;52.520;16.998;2024-02-28T11:35:44;14.90;;;6.20;;
84303;SDS011;74469;52.520;16.998;2024-02-28T11:40:49;11.70;;;6.50;;
84303;SDS011;74469;52.520;16.998;2024-02-28T11:45:53;9.80;;;5.30;;
84303;SDS011;74469;52.520;16.998;2024-02-28T11:50:57;9.60;;;4.90;;
84303;SDS011;74469;52.520;16.998;2024-02-28T11:56:01;9.80;;;4.60;;
84303;SDS011;74469;52.520;16.998;2024-02-28T12:01:04;9.50;;;5.80;;
84303;SDS011;74469;52.520;16.998;2024-02-28T12:06:07;8.00;;;3.90;;
84303;SDS011;74469;52.520;16.998;2024-02-28T12:11:10;7.90;;;4.00;;
84303;SDS011;74469;52.520;16.998;2024-02-28T12:16:13;11.40;;;5.20;;
84303;SDS011;74469;52.520;16.998;2024-02-28T12:21:16;13.80;;;5.40;;
84303;SDS011;74469;52.520;16.998;2024-02-28T12:26:18;11.20;;;4.50;;
84303;SDS011;74469;52.520;16.998;2024-02-28T12:31:22;10.20;;;4.30;;
84303;SDS011;74469;52.520;16.998;2024-02-28T12:41:38;9.20;;;4.90;;
84303;SDS011;74469;52.520;16.998;2024-02-28T12:46:42;10.50;;;4.50;;
84303;SDS011;74469;52.520;16.998;2024-02-28T12:51:45;8.20;;;4.10;;
84303;SDS011;74469;52.520;16.998;2024-02-28T12:56:48;7.30;;;4.80;;
84303;SDS011;74469;52.520;16.998;2024-02-28T13:01:51;6.30;;;4.30;;
84303;SDS011;74469;52.520;16.998;2024-02-28T13:06:54;9.00;;;4.70;;
84303;SDS011;74469;52.520;16.998;2024-02-28T13:11:57;9.20;;;4.90;;
84303;SDS011;74469;52.520;16.998;2024-02-28T13:16:59;8.10;;;4.90;;
84303;SDS011;74469;52.520;16.998;2024-02-28T13:22:02;10.30;;;5.40;;
84303;SDS011;74469;52.520;16.998;2024-02-28T13:27:05;7.00;;;4.30;;
84303;SDS011;74469;52.520;16.998;2024-02-28T13:32:07;8.30;;;4.50;;
84303;SDS011;74469;52.520;16.998;2024-02-28T13:37:10;6.90;;;3.30;;
84303;SDS011;74469;52.520;16.998;2024-02-28T13:42:13;11.40;;;7.00;;
84303;SDS011;74469;52.520;16.998;2024-02-28T13:47:16;4.80;;;3.20;;
84303;SDS011;74469;52.520;16.998;2024-02-28T13:52:19;9.90;;;4.50;;
84303;SDS011;74469;52.520;16.998;2024-02-28T13:57:22;4.20;;;2.70;;
84303;SDS011;74469;52.520;16.998;2024-02-28T14:02:24;4.20;;;2.80;;
84303;SDS011;74469;52.520;16.998;2024-02-28T14:07:28;7.60;;;3.40;;
84303;SDS011;74469;52.520;16.998;2024-02-28T14:12:31;7.10;;;4.20;;
84303;SDS011;74469;52.520;16.998;2024-02-28T14:17:34;9.10;;;3.90;;
84303;SDS011;74469;52.520;16.998;2024-02-28T14:22:36;5.50;;;3.40;;
84303;SDS011;74469;52.520;16.998;2024-02-28T14:27:44;6.70;;;3.80;;
84303;SDS011;74469;52.520;16.998;2024-02-28T14:32:47;9.20;;;3.90;;
84303;SDS011;74469;52.520;16.998;2024-02-28T14:37:51;5.10;;;3.50;;
84303;SDS011;74469;52.520;16.998;2024-02-28T14:42:55;6.00;;;4.30;;
84303;SDS011;74469;52.520;16.998;2024-02-28T14:47:57;8.30;;;5.20;;
84303;SDS011;74469;52.520;16.998;2024-02-28T14:53:00;9.90;;;4.40;;
84303;SDS011;74469;52.520;16.998;2024-02-28T14:58:04;7.70;;;4.60;;
84303;SDS011;74469;52.520;16.998;2024-02-28T15:03:06;10.90;;;6.00;;
84303;SDS011;74469;52.520;16.998;2024-02-28T15:08:10;8.90;;;4.10;;
84303;SDS011;74469;52.520;16.998;2024-02-28T15:13:13;9.00;;;4.80;;
84303;SDS011;74469;52.520;16.998;2024-02-28T15:18:15;8.30;;;5.90;;
84303;SDS011;74469;52.520;16.998;2024-02-28T15:23:19;10.90;;;5.20;;
84303;SDS011;74469;52.520;16.998;2024-02-28T15:28:23;9.20;;;5.20;;
84303;SDS011;74469;52.520;16.998;2024-02-28T15:33:29;11.00;;;5.30;;
84303;SDS011;74469;52.520;16.998;2024-02-28T15:38:32;9.30;;;4.90;;
84303;SDS011;74469;52.520;16.998;2024-02-28T15:43:34;8.50;;;4.60;;
84303;SDS011;74469;52.520;16.998;2024-02-28T15:48:37;8.10;;;4.70;;
84303;SDS011;74469;52.520;16.998;2024-02-28T15:53:40;8.50;;;4.80;;
84303;SDS011;74469;52.520;16.998;2024-02-28T15:58:43;6.50;;;4.40;;
84303;SDS011;74469;52.520;16.998;2024-02-28T16:03:46;9.50;;;5.40;;
84303;SDS011;74469;52.520;16.998;2024-02-28T16:08:48;9.00;;;4.80;;
84303;SDS011;74469;52.520;16.998;2024-02-28T16:13:51;6.80;;;4.90;;
84303;SDS011;74469;52.520;16.998;2024-02-28T16:18:54;5.90;;;3.50;;
84303;SDS011;74469;52.520;16.998;2024-02-28T16:23:56;9.70;;;5.20;;
84303;SDS011;74469;52.520;16.998;2024-02-28T16:28:59;7.90;;;4.20;;
84303;SDS011;74469;52.520;16.998;2024-02-28T16:34:02;6.60;;;4.30;;
84303;SDS011;74469;52.520;16.998;2024-02-28T16:39:04;6.30;;;3.60;;
84303;SDS011;74469;52.520;16.998;2024-02-28T16:44:09;7.70;;;4.70;;
84303;SDS011;74469;52.520;16.998;2024-02-28T16:49:11;6.90;;;4.10;;
84303;SDS011;74469;52.520;16.998;2024-02-28T16:54:14;12.00;;;4.20;;
84303;SDS011;74469;52.520;16.998;2024-02-28T16:59:17;7.50;;;4.10;;
84303;SDS011;74469;52.520;16.998;2024-02-28T17:04:19;9.60;;;5.50;;
84303;SDS011;74469;52.520;16.998;2024-02-28T17:09:23;9.40;;;5.10;;
84303;SDS011;74469;52.520;16.998;2024-02-28T17:14:29;8.60;;;3.80;;
84303;SDS011;74469;52.520;16.998;2024-02-28T17:19:32;6.10;;;4.00;;
84303;SDS011;74469;52.520;16.998;2024-02-28T17:24:34;12.30;;;5.50;;
84303;SDS011;74469;52.520;16.998;2024-02-28T17:29:37;5.60;;;3.90;;
84303;SDS011;74469;52.520;16.998;2024-02-28T17:34:40;9.70;;;5.70;;
84303;SDS011;74469;52.520;16.998;2024-02-28T17:39:43;8.90;;;5.20;;
84303;SDS011;74469;52.520;16.998;2024-02-28T17:44:46;10.10;;;5.20;;
84303;SDS011;74469;52.520;16.998;2024-02-28T17:49:48;6.20;;;4.10;;
84303;SDS011;74469;52.520;16.998;2024-02-28T17:54:51;5.80;;;3.40;;
84303;SDS011;74469;52.520;16.998;2024-02-28T17:59:54;8.60;;;4.50;;
84303;SDS011;74469;52.520;16.998;2024-02-28T18:04:56;7.00;;;4.10;;
84303;SDS011;74469;52.520;16.998;2024-02-28T18:09:59;7.60;;;4.20;;
84303;SDS011;74469;52.520;16.998;2024-02-28T18:15:03;8.70;;;4.70;;
84303;SDS011;74469;52.520;16.998;2024-02-28T18:20:06;8.30;;;6.10;;
84303;SDS011;74469;52.520;16.998;2024-02-28T18:25:10;11.00;;;4.60;;
84303;SDS011;74469;52.520;16.998;2024-02-28T18:30:12;7.60;;;4.00;;
84303;SDS011;74469;52.520;16.998;2024-02-28T18:35:16;11.60;;;5.90;;
84303;SDS011;74469;52.520;16.998;2024-02-28T18:40:19;10.70;;;4.80;;
84303;SDS011;74469;52.520;16.998;2024-02-28T18:50:36;13.40;;;6.10;;
84303;SDS011;74469;52.520;16.998;2024-02-28T18:55:38;11.90;;;6.50;;
84303;SDS011;74469;52.520;16.998;2024-02-28T19:00:41;13.00;;;5.60;;
84303;SDS011;74469;52.520;16.998;2024-02-28T19:05:48;16.80;;;8.20;;
84303;SDS011;74469;52.520;16.998;2024-02-28T19:10:51;9.30;;;5.90;;
84303;SDS011;74469;52.520;16.998;2024-02-28T19:15:56;19.90;;;8.30;;
84303;SDS011;74469;52.520;16.998;2024-02-28T19:21:01;16.20;;;8.80;;
84303;SDS011;74469;52.520;16.998;2024-02-28T19:26:03;15.80;;;6.80;;
84303;SDS011;74469;52.520;16.998;2024-02-28T19:31:06;16.50;;;7.40;;
84303;SDS011;74469;52.520;16.998;2024-02-28T19:36:10;15.80;;;7.90;;
84303;SDS011;74469;52.520;16.998;2024-02-28T19:41:12;16.70;;;8.80;;
84303;SDS011;74469;52.520;16.998;2024-02-28T19:46:16;20.80;;;8.50;;
84303;SDS011;74469;52.520;16.998;2024-02-28T19:51:19;19.70;;;8.70;;
84303;SDS011;74469;52.520;16.998;2024-02-28T19:56:21;18.50;;;7.90;;
84303;SDS011;74469;52.520;16.998;2024-02-28T20:01:25;21.30;;;7.40;;
84303;SDS011;74469;52.520;16.998;2024-02-28T20:06:28;26.10;;;9.80;;
84303;SDS011;74469;52.520;16.998;2024-02-28T20:11:31;23.10;;;9.00;;
84303;SDS011;74469;52.520;16.998;2024-02-28T20:16:34;25.30;;;10.00;;
84303;SDS011;74469;52.520;16.998;2024-02-28T20:21:38;32.20;;;10.60;;
84303;SDS011;74469;52.520;16.998;2024-02-28T20:26:41;21.00;;;8.20;;
84303;SDS011;74469;52.520;16.998;2024-02-28T20:31:44;25.70;;;9.20;;
84303;SDS011;74469;52.520;16.998;2024-02-28T20:36:47;24.20;;;9.40;;
84303;SDS011;74469;52.520;16.998;2024-02-28T20:41:49;22.10;;;9.70;;
84303;SDS011;74469;52.520;16.998;2024-02-28T20:46:52;17.60;;;8.20;;
84303;SDS011;74469;52.520;16.998;2024-02-28T20:51:55;18.20;;;7.40;;
84303;SDS011;74469;52.520;16.998;2024-02-28T20:56:59;21.10;;;9.30;;
84303;SDS011;74469;52.520;16.998;2024-02-28T21:02:03;24.40;;;9.00;;
84303;SDS011;74469;52.520;16.998;2024-02-28T21:07:06;24.00;;;7.80;;
84303;SDS011;74469;52.520;16.998;2024-02-28T21:12:09;24.40;;;9.10;;
84303;SDS011;74469;52.520;16.998;2024-02-28T21:17:16;24.10;;;9.70;;
84303;SDS011;74469;52.520;16.998;2024-02-28T21:22:21;17.90;;;7.00;;
84303;SDS011;74469;52.520;16.998;2024-02-28T21:27:24;28.60;;;9.70;;
84303;SDS011;74469;52.520;16.998;2024-02-28T21:32:27;26.60;;;9.70;;
84303;SDS011;74469;52.520;16.998;2024-02-28T21:37:29;19.70;;;7.20;;
84303;SDS011;74469;52.520;16.998;2024-02-28T21:42:32;21.70;;;8.00;;
84303;SDS011;74469;52.520;16.998;2024-02-28T21:47:35;28.20;;;10.20;;
84303;SDS011;74469;52.520;16.998;2024-02-28T21:52:38;19.80;;;8.60;;
84303;SDS011;74469;52.520;16.998;2024-02-28T21:57:41;23.10;;;8.50;;
84303;SDS011;74469;52.520;16.998;2024-02-28T22:02:43;20.40;;;6.50;;
84303;SDS011;74469;52.520;16.998;2024-02-28T22:07:48;27.10;;;7.10;;
84303;SDS011;74469;52.520;16.998;2024-02-28T22:12:51;20.20;;;7.50;;
84303;SDS011;74469;52.520;16.998;2024-02-28T22:17:53;20.70;;;9.30;;
84303;SDS011;74469;52.520;16.998;2024-02-28T22:22:56;15.70;;;6.00;;
84303;SDS011;74469;52.520;16.998;2024-02-28T22:27:59;21.60;;;7.70;;
84303;SDS011;74469;52.520;16.998;2024-02-28T22:33:01;27.90;;;7.90;;
84303;SDS011;74469;52.520;16.998;2024-02-28T22:38:04;20.10;;;9.40;;
84303;SDS011;74469;52.520;16.998;2024-02-28T22:43:07;20.70;;;8.00;;
84303;SDS011;74469;52.520;16.998;2024-02-28T22:48:09;15.90;;;6.50;;
84303;SDS011;74469;52.520;16.998;2024-02-28T22:53:12;15.20;;;6.40;;
84303;SDS011;74469;52.520;16.998;2024-02-28T22:58:15;11.00;;;4.40;;
84303;SDS011;74469;52.520;16.998;2024-02-28T23:03:17;14.10;;;5.90;;
84303;SDS011;74469;52.520;16.998;2024-02-28T23:08:20;22.10;;;9.30;;
84303;SDS011;74469;52.520;16.998;2024-02-28T23:13:23;18.30;;;6.70;;
84303;SDS011;74469;52.520;16.998;2024-02-28T23:18:26;17.60;;;6.70;;
84303;SDS011;74469;52.520;16.998;2024-02-28T23:23:29;16.90;;;6.10;;
84303;SDS011;74469;52.520;16.998;2024-02-28T23:28:33;19.50;;;6.20;;
84303;SDS011;74469;52.520;16.998;2024-02-28T23:33:35;17.00;;;5.80;;
84303;SDS011;74469;52.520;16.998;2024-02-28T23:38:38;18.50;;;7.80;;
84303;SDS011;74469;52.520;16.998;2024-02-28T23:43:41;15.50;;;5.70;;
84303;SDS011;74469;52.520;16.998;2024-02-28T23:48:44;14.50;;;6.20;;
84303;SDS011;74469;52.520;16.998;2024-02-28T23:53:47;16.20;;;6.40;;
84303;SDS011;74469;52.520;16.998;2024-02-28T23:58:49;15.30;;;5.50;;
